Time;durP1;ratioP1;P1;durP2;ratioP2;P2;SDS_P1;SDS_P2;PMS_P1;PMS_P2;Temp;Humidity;BMP_temperature;BMP_pressure;BME280_temperature;BME280_humidity;BME280_pressure;Samples;Min_cycle;Max_cycle;Signal;HPM_P1;HPM_P2
2021/08/21 00:01:14;;;;;;;21.80;19.05;;;;;;;;;;5069342;28;20724;-80
2021/08/21 00:03:40;;;;;;;22.15;19.85;;;;;;;;;;5068229;28;20397;-80
2021/08/21 00:06:06;;;;;;;21.83;19.60;;;;;;;;;;5069087;28;20493;-82
2021/08/21 00:08:32;;;;;;;24.00;21.45;;;;;;;;;;5068446;28;20370;-81
2021/08/21 00:10:58;;;;;;;22.83;20.40;;;;;;;;;;5068855;28;20371;-80
2021/08/21 00:13:24;;;;;;;23.67;21.00;;;;;;;;;;5051116;28;20389;-82
2021/08/21 00:15:50;;;;;;;30.38;25.35;;;;;;;;;;5051064;28;20382;-81
2021/08/21 00:18:16;;;;;;;29.63;25.27;;;;;;;;;;5068839;28;20374;-80
2021/08/21 00:20:42;;;;;;;31.07;25.03;;;;;;;;;;5068847;28;20370;-81
2021/08/21 00:23:08;;;;;;;24.93;22.27;;;;;;;;;;5068720;28;20378;-81
2021/08/21 00:25:34;;;;;;;25.05;20.63;;;;;;;;;;5050534;28;20409;-81
2021/08/21 00:28:00;;;;;;;22.58;20.23;;;;;;;;;;5068843;28;20437;-81
2021/08/21 00:30:26;;;;;;;26.08;20.02;;;;;;;;;;5068519;28;20369;-80
2021/08/21 00:32:52;;;;;;;23.95;20.40;;;;;;;;;;5050688;28;20374;-79
2021/08/21 00:35:18;;;;;;;23.80;20.63;;;;;;;;;;5068985;28;20369;-81
2021/08/21 00:37:44;;;;;;;22.95;20.45;;;;;;;;;;5050577;28;20436;-81
2021/08/21 00:40:10;;;;;;;25.23;20.80;;;;;;;;;;5050376;28;20732;-80
2021/08/21 00:42:36;;;;;;;23.30;20.83;;;;;;;;;;5068580;28;20370;-79
2021/08/21 00:45:06;;;;;;;24.35;21.40;;;;;;;;;;5068359;28;20905;-80
2021/08/21 00:47:32;;;;;;;25.13;19.40;;;;;;;;;;5068586;28;20408;-80
2021/08/21 00:49:58;;;;;;;22.67;19.83;;;;;;;;;;5050190;28;20732;-80
2021/08/21 00:52:27;;;;;;;22.97;20.43;;;;;;;;;;5068521;28;20374;-81
2021/08/21 00:54:54;;;;;;;23.10;20.42;;;;;;;;;;5068625;28;20465;-80
2021/08/21 00:57:20;;;;;;;24.05;21.50;;;;;;;;;;5068567;28;20374;-80
2021/08/21 00:59:47;;;;;;;25.35;21.70;;;;;;;;;;5068261;28;20404;-80
2021/08/21 01:02:14;;;;;;;25.53;20.33;;;;;;;;;;5068389;28;20390;-81
2021/08/21 01:04:40;;;;;;;25.85;21.33;;;;;;;;;;5068395;28;20763;-80
2021/08/21 01:07:07;;;;;;;23.35;19.77;;;;;;;;;;5068402;28;20374;-80
2021/08/21 01:09:36;;;;;;;21.77;19.35;;;;;;;;;;5067900;28;20374;-80
2021/08/21 01:12:02;;;;;;;20.77;18.58;;;;;;;;;;5068248;28;20457;-81
2021/08/21 01:14:28;;;;;;;20.65;18.50;;;;;;;;;;5068193;28;20373;-80
2021/08/21 01:16:54;;;;;;;20.77;18.30;;;;;;;;;;5072464;28;20427;-80
2021/08/21 01:19:22;;;;;;;21.20;18.90;;;;;;;;;;5071846;28;20401;-81
2021/08/21 01:21:48;;;;;;;19.95;18.00;;;;;;;;;;5071779;28;20807;-81
2021/08/21 01:24:14;;;;;;;21.17;18.90;;;;;;;;;;5072090;28;20737;-81
2021/08/21 01:26:53;;;;;;;21.05;18.92;;;;;;;;;;5071974;28;20913;-79
2021/08/21 01:29:19;;;;;;;21.60;18.80;;;;;;;;;;5053846;28;20471;-80
2021/08/21 01:31:45;;;;;;;20.48;18.38;;;;;;;;;;5071752;28;20839;-78
2021/08/21 01:34:11;;;;;;;21.53;19.23;;;;;;;;;;5054070;28;20715;-80
2021/08/21 01:36:40;;;;;;;22.70;20.30;;;;;;;;;;5071737;28;20374;-80
2021/08/21 01:39:06;;;;;;;22.87;18.87;;;;;;;;;;5071594;28;20370;-80
2021/08/21 01:41:32;;;;;;;20.67;18.27;;;;;;;;;;5071893;28;20374;-80
2021/08/21 01:43:58;;;;;;;23.80;18.87;;;;;;;;;;5071656;28;20389;-81
2021/08/21 01:46:24;;;;;;;19.60;17.50;;;;;;;;;;5071487;28;20789;-81
2021/08/21 01:48:50;;;;;;;23.08;20.55;;;;;;;;;;5071058;28;20386;-80
2021/08/21 01:51:16;;;;;;;21.33;19.13;;;;;;;;;;5071573;28;20412;-80
2021/08/21 01:53:42;;;;;;;28.03;21.23;;;;;;;;;;5071613;28;20370;-80
2021/08/21 01:56:10;;;;;;;24.40;20.90;;;;;;;;;;5071570;28;20369;-79
2021/08/21 01:58:37;;;;;;;22.92;20.30;;;;;;;;;;5070781;28;20363;-79
2021/08/21 02:01:04;;;;;;;26.10;21.05;;;;;;;;;;5071602;28;20390;-80
2021/08/21 02:03:30;;;;;;;24.95;21.13;;;;;;;;;;5053095;28;20409;-80
2021/08/21 02:05:56;;;;;;;23.15;20.33;;;;;;;;;;5071612;28;20491;-80
2021/08/21 02:08:22;;;;;;;23.17;19.77;;;;;;;;;;5052671;28;20471;-80
2021/08/21 02:10:48;;;;;;;24.08;20.85;;;;;;;;;;5071082;28;20414;-80
2021/08/21 02:13:14;;;;;;;22.83;19.77;;;;;;;;;;5071548;28;20402;-80
2021/08/21 02:15:40;;;;;;;21.42;19.13;;;;;;;;;;5071051;28;20458;-80
2021/08/21 02:18:06;;;;;;;23.45;19.15;;;;;;;;;;5071102;28;20449;-80
2021/08/21 02:20:32;;;;;;;24.70;20.75;;;;;;;;;;5052922;28;20393;-80
2021/08/21 02:22:58;;;;;;;25.05;21.17;;;;;;;;;;5071229;28;20874;-81
2021/08/21 02:25:24;;;;;;;27.63;20.70;;;;;;;;;;5053291;28;20403;-80
2021/08/21 02:27:59;;;;;;;24.30;21.45;;;;;;;;;;5069993;28;20441;-80
2021/08/21 02:30:25;;;;;;;23.80;18.95;;;;;;;;;;5052653;28;20370;-80
2021/08/21 02:32:51;;;;;;;22.70;18.67;;;;;;;;;;5070968;28;20367;-80
2021/08/21 02:35:17;;;;;;;22.80;17.92;;;;;;;;;;5070751;28;20369;-79
2021/08/21 02:37:43;;;;;;;19.90;17.33;;;;;;;;;;5070536;28;20415;-81
2021/08/21 02:40:09;;;;;;;21.55;17.45;;;;;;;;;;5070456;28;20875;-78
2021/08/21 02:42:35;;;;;;;23.27;19.27;;;;;;;;;;5070682;28;20370;-80
2021/08/21 02:45:01;;;;;;;30.80;21.20;;;;;;;;;;5070654;28;20429;-80
2021/08/21 02:47:27;;;;;;;27.45;21.98;;;;;;;;;;5070398;28;20474;-80
2021/08/21 02:49:53;;;;;;;28.75;22.67;;;;;;;;;;5070449;28;20374;-81
2021/08/21 02:52:19;;;;;;;30.92;22.42;;;;;;;;;;5070722;28;20381;-80
2021/08/21 02:54:45;;;;;;;29.95;23.65;;;;;;;;;;5070236;28;20496;-80
2021/08/21 02:57:11;;;;;;;33.10;23.02;;;;;;;;;;5070443;28;20370;-80
2021/08/21 02:59:37;;;;;;;42.50;26.10;;;;;;;;;;5069673;28;20378;-80
2021/08/21 03:02:03;;;;;;;38.00;24.33;;;;;;;;;;5070110;28;20374;-78
2021/08/21 03:04:29;;;;;;;41.00;26.02;;;;;;;;;;5070327;28;20501;-82
2021/08/21 03:06:55;;;;;;;54.78;29.00;;;;;;;;;;5069993;28;20449;-82
2021/08/21 03:09:21;;;;;;;42.30;26.75;;;;;;;;;;5052145;28;20370;-78
2021/08/21 03:11:47;;;;;;;43.88;27.35;;;;;;;;;;5070366;28;20366;-82
2021/08/21 03:14:13;;;;;;;51.35;28.55;;;;;;;;;;5070692;28;20366;-81
2021/08/21 03:16:39;;;;;;;38.75;26.15;;;;;;;;;;5070035;28;20848;-82
2021/08/21 03:19:05;;;;;;;41.88;27.60;;;;;;;;;;5070356;28;20832;-82
2021/08/21 03:21:31;;;;;;;31.83;24.73;;;;;;;;;;5070821;28;20424;-82
2021/08/21 03:23:57;;;;;;;37.35;26.23;;;;;;;;;;5052289;28;20913;-81
2021/08/21 03:26:23;;;;;;;48.70;28.30;;;;;;;;;;5069822;28;20397;-81
2021/08/21 03:28:49;;;;;;;41.45;26.55;;;;;;;;;;5069555;28;20380;-82
2021/08/21 03:31:15;;;;;;;41.35;27.05;;;;;;;;;;5069800;28;21023;-81
2021/08/21 03:33:42;;;;;;;36.55;27.23;;;;;;;;;;5069802;28;20424;-81
2021/08/21 03:36:08;;;;;;;43.15;28.20;;;;;;;;;;5070008;28;20439;-81
2021/08/21 03:38:34;;;;;;;36.83;26.98;;;;;;;;;;5069647;28;20851;-81
2021/08/21 03:41:00;;;;;;;34.33;25.85;;;;;;;;;;5070296;28;20373;-82
2021/08/21 03:43:26;;;;;;;34.20;26.25;;;;;;;;;;5071514;28;20464;-81
2021/08/21 03:45:52;;;;;;;33.35;24.83;;;;;;;;;;5052781;28;20436;-82
2021/08/21 03:48:18;;;;;;;34.80;25.20;;;;;;;;;;5052701;28;20397;-81
2021/08/21 03:50:44;;;;;;;29.70;23.92;;;;;;;;;;5073008;28;20370;-81
2021/08/21 03:53:10;;;;;;;28.88;23.38;;;;;;;;;;5079930;28;20362;-80
2021/08/21 03:55:36;;;;;;;30.47;24.13;;;;;;;;;;5080160;28;20374;-81
2021/08/21 03:58:02;;;;;;;26.85;22.23;;;;;;;;;;5080243;28;20377;-79
2021/08/21 04:00:28;;;;;;;29.17;23.90;;;;;;;;;;5060574;28;20366;-81
2021/08/21 04:02:54;;;;;;;40.33;26.90;;;;;;;;;;5077532;28;20370;-81
2021/08/21 04:05:20;;;;;;;39.50;27.63;;;;;;;;;;5078019;28;20398;-80
2021/08/21 04:07:46;;;;;;;36.95;25.02;;;;;;;;;;5061020;28;20381;-79
2021/08/21 04:10:12;;;;;;;36.70;27.03;;;;;;;;;;5062613;28;20374;-83
2021/08/21 04:12:38;;;;;;;49.43;28.23;;;;;;;;;;5080149;28;20375;-79
2021/08/21 04:15:04;;;;;;;33.33;25.60;;;;;;;;;;5062848;28;20393;-80
2021/08/21 04:17:30;;;;;;;46.92;27.48;;;;;;;;;;5078757;28;20377;-81
2021/08/21 04:19:56;;;;;;;37.97;26.35;;;;;;;;;;5077164;28;20366;-80
2021/08/21 04:22:22;;;;;;;43.65;27.95;;;;;;;;;;5060535;28;20393;-81
2021/08/21 04:24:48;;;;;;;38.88;26.48;;;;;;;;;;5080079;28;20455;-80
2021/08/21 04:27:14;;;;;;;36.42;25.63;;;;;;;;;;5080129;28;20381;-80
2021/08/21 04:29:40;;;;;;;37.78;27.60;;;;;;;;;;5062416;28;20382;-79
2021/08/21 04:32:06;;;;;;;33.95;25.50;;;;;;;;;;5074925;28;20434;-79
2021/08/21 04:34:34;;;;;;;63.30;27.65;;;;;;;;;;5080888;28;20744;-78
2021/08/21 04:37:02;;;;;;;39.72;27.80;;;;;;;;;;5081872;28;20382;-79
2021/08/21 04:39:28;;;;;;;46.22;29.55;;;;;;;;;;5080946;28;20528;-79
2021/08/21 04:41:54;;;;;;;48.10;29.83;;;;;;;;;;5079410;28;20413;-80
2021/08/21 04:44:20;;;;;;;59.15;32.53;;;;;;;;;;5081059;28;20370;-79
2021/08/21 04:46:46;;;;;;;39.33;27.30;;;;;;;;;;5080963;28;20409;-79
2021/08/21 04:49:12;;;;;;;62.03;31.63;;;;;;;;;;5080107;28;20425;-81
2021/08/21 04:51:38;;;;;;;34.95;25.38;;;;;;;;;;5079261;28;20370;-80
2021/08/21 04:54:04;;;;;;;37.75;28.52;;;;;;;;;;5062296;28;20740;-81
2021/08/21 04:56:30;;;;;;;42.25;29.88;;;;;;;;;;5062254;28;20968;-80
2021/08/21 04:58:56;;;;;;;38.13;28.95;;;;;;;;;;5078024;28;20794;-80
2021/08/21 05:01:22;;;;;;;34.25;26.83;;;;;;;;;;5076950;28;20370;-81
2021/08/21 05:03:48;;;;;;;48.58;31.25;;;;;;;;;;5070268;28;20860;-81
2021/08/21 05:06:14;;;;;;;31.00;26.08;;;;;;;;;;5052674;28;20402;-82
2021/08/21 05:08:40;;;;;;;28.55;24.33;;;;;;;;;;5070735;28;20369;-83
2021/08/21 05:11:06;;;;;;;25.33;22.55;;;;;;;;;;5069296;28;20800;-83
2021/08/21 05:13:32;;;;;;;29.08;24.55;;;;;;;;;;5050556;28;20374;-82
2021/08/21 05:15:58;;;;;;;27.50;24.50;;;;;;;;;;5068693;28;20369;-81
2021/08/21 05:18:31;;;;;;;26.48;23.58;;;;;;;;;;5068188;28;20512;-81
2021/08/21 05:21:08;;;;;;;23.58;20.65;;;;;;;;;;5050287;28;20736;-82
2021/08/21 05:23:34;;;;;;;19.75;17.75;;;;;;;;;;5068131;28;20408;-82
2021/08/21 05:26:00;;;;;;;18.08;16.38;;;;;;;;;;5068313;28;20398;-80
2021/08/21 05:28:26;;;;;;;16.42;14.77;;;;;;;;;;5068044;28;20415;-81
2021/08/21 05:30:53;;;;;;;18.15;16.35;;;;;;;;;;5068051;28;20390;-82
2021/08/21 05:33:19;;;;;;;18.17;16.47;;;;;;;;;;5050119;28;20740;-81
2021/08/21 05:35:45;;;;;;;17.55;15.82;;;;;;;;;;5049929;28;20469;-80
2021/08/21 05:38:12;;;;;;;16.65;15.05;;;;;;;;;;5067706;28;20374;-81
2021/08/21 05:40:38;;;;;;;18.67;16.60;;;;;;;;;;5049675;28;20382;-82
2021/08/21 05:43:04;;;;;;;17.50;15.75;;;;;;;;;;5068185;28;20419;-81
2021/08/21 05:45:30;;;;;;;16.92;15.32;;;;;;;;;;5067669;28;20424;-82
2021/08/21 05:47:56;;;;;;;16.75;15.15;;;;;;;;;;5067938;28;20365;-81
2021/08/21 05:50:23;;;;;;;15.40;13.90;;;;;;;;;;5067858;28;20368;-81
2021/08/21 05:52:49;;;;;;;14.27;12.90;;;;;;;;;;5049896;28;21410;-82
2021/08/21 05:55:15;;;;;;;15.75;14.07;;;;;;;;;;5068248;28;20381;-82
2021/08/21 05:57:41;;;;;;;13.35;12.10;;;;;;;;;;5067428;28;20412;-83
2021/08/21 06:00:07;;;;;;;13.07;11.88;;;;;;;;;;5049558;28;20965;-83
2021/08/21 06:02:33;;;;;;;13.40;12.10;;;;;;;;;;5069227;28;20928;-83
2021/08/21 06:04:59;;;;;;;15.95;14.35;;;;;;;;;;5070957;28;20413;-82
2021/08/21 06:07:25;;;;;;;15.85;14.45;;;;;;;;;;5053660;28;20433;-81
2021/08/21 06:09:51;;;;;;;14.85;13.55;;;;;;;;;;5071025;28;20408;-83
2021/08/21 06:12:17;;;;;;;15.90;14.40;;;;;;;;;;5076060;28;20373;-83
2021/08/21 06:14:44;;;;;;;15.27;13.93;;;;;;;;;;5077654;28;20851;-85
2021/08/21 06:17:10;;;;;;;16.90;15.32;;;;;;;;;;5052360;28;20382;-81
2021/08/21 06:19:37;;;;;;;17.98;16.27;;;;;;;;;;5052533;28;20385;-85
2021/08/21 06:22:03;;;;;;;16.23;14.73;;;;;;;;;;5051694;28;20393;-84
2021/08/21 06:24:29;;;;;;;16.95;15.45;;;;;;;;;;5051902;28;20454;-81
2021/08/21 06:26:55;;;;;;;17.08;15.57;;;;;;;;;;5050714;28;20387;-82
2021/08/21 06:29:21;;;;;;;15.60;14.20;;;;;;;;;;5069493;28;20436;-80
2021/08/21 06:31:47;;;;;;;16.17;14.67;;;;;;;;;;5069057;28;20893;-83
2021/08/21 06:34:13;;;;;;;15.13;13.73;;;;;;;;;;5052099;28;20382;-82
2021/08/21 06:36:39;;;;;;;14.43;13.02;;;;;;;;;;5070575;28;20721;-81
2021/08/21 06:39:05;;;;;;;13.88;12.68;;;;;;;;;;5052031;28;20421;-81
2021/08/21 06:41:31;;;;;;;14.65;13.35;;;;;;;;;;5070589;28;20382;-80
2021/08/21 06:43:57;;;;;;;13.38;12.18;;;;;;;;;;5068589;28;20732;-83
2021/08/21 06:46:23;;;;;;;13.27;11.97;;;;;;;;;;5068387;28;20414;-83
2021/08/21 06:48:49;;;;;;;13.98;12.68;;;;;;;;;;5067872;28;20839;-82
2021/08/21 06:51:15;;;;;;;12.75;11.57;;;;;;;;;;5069371;28;20378;-80
2021/08/21 06:53:41;;;;;;;14.50;13.10;;;;;;;;;;5052328;28;20416;-81
2021/08/21 06:56:08;;;;;;;15.55;13.95;;;;;;;;;;5072117;28;20716;-80
2021/08/21 06:58:34;;;;;;;15.10;13.60;;;;;;;;;;5073438;28;20402;-83
2021/08/21 07:01:00;;;;;;;13.85;12.65;;;;;;;;;;5073614;28;20713;-81
2021/08/21 07:03:26;;;;;;;15.82;14.27;;;;;;;;;;5052104;28;20515;-83
2021/08/21 07:05:52;;;;;;;15.35;13.77;;;;;;;;;;5070160;28;20410;-81
2021/08/21 07:08:18;;;;;;;15.45;13.95;;;;;;;;;;5051194;28;20378;-81
2021/08/21 07:10:45;;;;;;;16.55;14.55;;;;;;;;;;5049789;28;20464;-83
2021/08/21 07:13:11;;;;;;;15.90;14.15;;;;;;;;;;5049106;28;20968;-81
2021/08/21 07:15:36;;;;;;;16.00;14.40;;;;;;;;;;5066982;28;20913;-81
2021/08/21 07:18:03;;;;;;;15.50;13.95;;;;;;;;;;5067888;28;20394;-81
2021/08/21 07:20:29;;;;;;;16.27;14.60;;;;;;;;;;5068177;28;20929;-82
2021/08/21 07:22:55;;;;;;;15.15;13.65;;;;;;;;;;5068899;28;20382;-82
2021/08/21 07:25:21;;;;;;;15.17;13.60;;;;;;;;;;5068379;28;20409;-79
2021/08/21 07:27:47;;;;;;;16.58;14.02;;;;;;;;;;5050663;28;20386;-82
2021/08/21 07:30:13;;;;;;;14.68;13.00;;;;;;;;;;5068818;28;20385;-83
2021/08/21 07:32:39;;;;;;;14.23;12.82;;;;;;;;;;5068818;28;20465;-83
2021/08/21 07:35:05;;;;;;;14.55;13.15;;;;;;;;;;5050906;28;20472;-83
2021/08/21 07:37:33;;;;;;;14.40;12.90;;;;;;;;;;5050928;28;20383;-83
2021/08/21 07:39:59;;;;;;;16.93;13.67;;;;;;;;;;5050979;28;20406;-81
2021/08/21 07:42:25;;;;;;;15.75;14.07;;;;;;;;;;5068391;28;20482;-82
2021/08/21 07:44:51;;;;;;;15.20;13.65;;;;;;;;;;5049971;28;20429;-83
2021/08/21 07:47:17;;;;;;;15.25;13.30;;;;;;;;;;5067120;28;20887;-84
2021/08/21 07:49:45;;;;;;;16.02;14.27;;;;;;;;;;5068209;28;20840;-84
2021/08/21 07:52:10;;;;;;;15.65;13.30;;;;;;;;;;5066449;28;20456;-81
2021/08/21 07:54:36;;;;;;;13.93;12.30;;;;;;;;;;5066090;28;20783;-82
2021/08/21 07:57:03;;;;;;;14.97;12.80;;;;;;;;;;5066492;28;20384;-83
2021/08/21 07:59:29;;;;;;;12.55;11.25;;;;;;;;;;5066416;28;20420;-82
2021/08/21 08:01:55;;;;;;;13.23;11.43;;;;;;;;;;5066967;28;20880;-84
2021/08/21 08:04:21;;;;;;;11.97;10.70;;;;;;;;;;5067126;28;20378;-82
2021/08/21 08:06:47;;;;;;;12.85;11.55;;;;;;;;;;5066653;28;20380;-80
2021/08/21 08:09:13;;;;;;;14.35;12.60;;;;;;;;;;5049234;28;20382;-83
2021/08/21 08:11:39;;;;;;;11.88;10.57;;;;;;;;;;5067129;28;20443;-82
2021/08/21 08:14:05;;;;;;;10.13;9.23;;;;;;;;;;5066535;28;20492;-83
2021/08/21 08:16:31;;;;;;;10.75;9.65;;;;;;;;;;5065931;28;20486;-81
2021/08/21 08:18:57;;;;;;;11.48;10.18;;;;;;;;;;5066312;28;20378;-83
2021/08/21 08:21:23;;;;;;;9.55;8.13;;;;;;;;;;5066127;28;20382;-83
2021/08/21 08:23:49;;;;;;;8.40;7.50;;;;;;;;;;5067081;28;20378;-83
2021/08/21 08:26:16;;;;;;;5.13;4.63;;;;;;;;;;5067200;28;21068;-82
2021/08/21 08:28:42;;;;;;;7.40;6.60;;;;;;;;;;5066217;28;20374;-84
2021/08/21 08:31:08;;;;;;;6.90;5.90;;;;;;;;;;5048752;28;20960;-83
2021/08/21 08:33:34;;;;;;;7.00;6.20;;;;;;;;;;5066511;28;20421;-85
2021/08/21 08:36:00;;;;;;;8.45;7.45;;;;;;;;;;5066358;28;20378;-83
2021/08/21 08:38:26;;;;;;;8.25;6.95;;;;;;;;;;5064156;28;20402;-83
2021/08/21 08:40:52;;;;;;;7.70;6.97;;;;;;;;;;5046632;28;20382;-83
2021/08/21 08:43:19;;;;;;;9.20;8.13;;;;;;;;;;5064091;28;20386;-83
2021/08/21 08:45:46;;;;;;;9.10;7.85;;;;;;;;;;5065121;28;20447;-83
2021/08/21 08:48:14;;;;;;;8.23;7.25;;;;;;;;;;5046232;28;20374;-79
2021/08/21 08:50:40;;;;;;;7.00;6.27;;;;;;;;;;5064510;28;20420;-82
2021/08/21 08:53:06;;;;;;;7.90;6.65;;;;;;;;;;5066267;28;20365;-84
2021/08/21 08:55:32;;;;;;;7.70;6.72;;;;;;;;;;5065367;28;20385;-84
2021/08/21 08:57:59;;;;;;;7.00;6.30;;;;;;;;;;5065195;28;20431;-83
2021/08/21 09:00:26;;;;;;;7.68;6.90;;;;;;;;;;5047441;28;20879;-82
2021/08/21 09:02:54;;;;;;;8.70;6.72;;;;;;;;;;5047903;28;20378;-83
2021/08/21 09:05:22;;;;;;;7.80;5.90;;;;;;;;;;5066561;28;20408;-82
2021/08/21 09:07:52;;;;;;;6.90;6.20;;;;;;;;;;5066011;28;20417;-83
2021/08/21 09:10:18;;;;;;;7.82;5.75;;;;;;;;;;5065123;28;20365;-82
2021/08/21 09:12:46;;;;;;;6.88;5.63;;;;;;;;;;5065984;28;20384;-83
2021/08/21 09:15:23;;;;;;;7.30;6.10;;;;;;;;;;5064594;28;20374;-83
2021/08/21 09:18:08;;;;;;;7.27;5.30;;;;;;;;;;5047410;28;20488;-83
2021/08/21 09:20:35;;;;;;;6.15;4.88;;;;;;;;;;5064890;28;20457;-82
2021/08/21 09:23:16;;;;;;;6.15;4.82;;;;;;;;;;5064033;28;20402;-81
2021/08/21 09:25:42;;;;;;;5.50;4.65;;;;;;;;;;5066129;28;20544;-82
2021/08/21 09:28:38;;;;;;;5.07;4.60;;;;;;;;;;5065381;28;20453;-83
2021/08/21 09:31:05;;;;;;;4.47;4.07;;;;;;;;;;5057989;28;20473;-82
2021/08/21 09:33:32;;;;;;;4.60;3.90;;;;;;;;;;5048856;28;20374;-83
2021/08/21 09:35:59;;;;;;;4.35;3.83;;;;;;;;;;5066361;28;20811;-85
2021/08/21 09:38:28;;;;;;;5.22;4.15;;;;;;;;;;5069062;28;20375;-82
2021/08/21 09:41:02;;;;;;;4.67;3.90;;;;;;;;;;5070931;28;20772;-82
2021/08/21 09:43:32;;;;;;;5.20;4.40;;;;;;;;;;5088114;28;20416;-82
2021/08/21 09:46:10;;;;;;;6.17;4.20;;;;;;;;;;5091113;28;20434;-83
2021/08/21 09:48:55;;;;;;;5.63;3.90;;;;;;;;;;5089077;28;20380;-82
2021/08/21 09:51:40;;;;;;;5.07;4.07;;;;;;;;;;5071111;28;20468;-82
2021/08/21 09:54:08;;;;;;;6.20;4.57;;;;;;;;;;5089730;28;20365;-82
2021/08/21 09:56:38;;;;;;;5.15;4.05;;;;;;;;;;5088097;28;20381;-82
2021/08/21 09:59:05;;;;;;;6.30;4.00;;;;;;;;;;5070751;28;20372;-80
2021/08/21 10:01:31;;;;;;;4.60;3.95;;;;;;;;;;5069824;28;20460;-83
2021/08/21 10:03:58;;;;;;;4.50;3.95;;;;;;;;;;5072791;28;20369;-82
2021/08/21 10:06:24;;;;;;;4.78;3.80;;;;;;;;;;5090760;28;20828;-81
2021/08/21 10:08:58;;;;;;;4.25;3.65;;;;;;;;;;5069444;28;20410;-81
2021/08/21 10:11:24;;;;;;;4.50;3.47;;;;;;;;;;5090807;28;20368;-82
2021/08/21 10:13:50;;;;;;;4.70;3.47;;;;;;;;;;5070635;28;20900;-81
2021/08/21 10:16:16;;;;;;;4.38;3.60;;;;;;;;;;5089542;28;20386;-82
2021/08/21 10:18:42;;;;;;;4.43;3.10;;;;;;;;;;5089056;28;20883;-81
2021/08/21 10:21:09;;;;;;;4.70;3.60;;;;;;;;;;5089415;28;20364;-82
2021/08/21 10:23:35;;;;;;;3.42;3.10;;;;;;;;;;5088153;28;20384;-81
2021/08/21 10:26:02;;;;;;;3.47;3.17;;;;;;;;;;5088278;28;20722;-80
2021/08/21 10:28:34;;;;;;;4.60;3.10;;;;;;;;;;5087723;28;20391;-79
2021/08/21 10:31:00;;;;;;;5.47;3.43;;;;;;;;;;5070638;28;20717;-82
2021/08/21 10:33:29;;;;;;;4.10;3.45;;;;;;;;;;5070941;28;20388;-81
2021/08/21 10:35:55;;;;;;;4.83;3.80;;;;;;;;;;5088225;28;20376;-80
2021/08/21 10:38:31;;;;;;;3.80;3.42;;;;;;;;;;5086072;28;20467;-83
2021/08/21 10:40:58;;;;;;;3.78;3.40;;;;;;;;;;5086424;28;20391;-82
2021/08/21 10:43:44;;;;;;;3.33;2.90;;;;;;;;;;5087029;28;20408;-82
2021/08/21 10:46:10;;;;;;;5.70;3.50;;;;;;;;;;5073202;28;20420;-82
2021/08/21 10:48:37;;;;;;;5.28;3.78;;;;;;;;;;5085409;28;20369;-82
2021/08/21 10:51:04;;;;;;;4.18;3.50;;;;;;;;;;5087020;28;20455;-83
2021/08/21 10:53:31;;;;;;;5.90;3.08;;;;;;;;;;5070917;28;20373;-83
2021/08/21 10:55:58;;;;;;;3.60;2.90;;;;;;;;;;5070984;28;20924;-82
2021/08/21 10:58:25;;;;;;;4.45;3.70;;;;;;;;;;5088272;28;20465;-86
2021/08/21 11:00:55;;;;;;;4.13;3.50;;;;;;;;;;5088032;28;20365;-82
2021/08/21 11:03:24;;;;;;;3.78;3.25;;;;;;;;;;5088780;28;20364;-83
2021/08/21 11:06:00;;;;;;;3.40;2.90;;;;;;;;;;5069082;28;20518;-82
2021/08/21 11:08:28;;;;;;;4.30;3.45;;;;;;;;;;5069610;28;20384;-82
2021/08/21 11:11:06;;;;;;;3.97;3.00;;;;;;;;;;5083963;28;20384;-81
2021/08/21 11:13:55;;;;;;;3.92;3.50;;;;;;;;;;5086825;28;20376;-82
2021/08/21 11:16:22;;;;;;;4.22;3.10;;;;;;;;;;5068867;28;20513;-84
2021/08/21 11:18:49;;;;;;;3.67;2.92;;;;;;;;;;5087045;28;20365;-83
2021/08/21 11:21:35;;;;;;;4.03;2.90;;;;;;;;;;5069237;28;20432;-83
2021/08/21 11:24:02;;;;;;;3.00;2.70;;;;;;;;;;5087144;28;20365;-85
2021/08/21 11:26:28;;;;;;;3.40;2.88;;;;;;;;;;5087338;28;21255;-84
2021/08/21 11:29:08;;;;;;;3.40;2.92;;;;;;;;;;5068961;28;20423;-81
2021/08/21 11:31:52;;;;;;;3.70;2.92;;;;;;;;;;5069812;28;20372;-82
2021/08/21 11:34:20;;;;;;;4.55;2.97;;;;;;;;;;5085939;28;20395;-84
2021/08/21 11:36:46;;;;;;;4.10;3.05;;;;;;;;;;5086727;28;20360;-80
2021/08/21 11:39:12;;;;;;;4.57;2.70;;;;;;;;;;5085911;28;20386;-82
2021/08/21 11:41:39;;;;;;;4.00;2.75;;;;;;;;;;5085543;28;20376;-83
2021/08/21 11:44:05;;;;;;;3.92;3.22;;;;;;;;;;5068031;28;20730;-83
2021/08/21 11:46:31;;;;;;;3.40;2.90;;;;;;;;;;5068728;28;20450;-83
2021/08/21 11:49:07;;;;;;;4.80;2.80;;;;;;;;;;5090608;28;20360;-85
2021/08/21 11:51:37;;;;;;;3.83;2.80;;;;;;;;;;5071582;28;20377;-80
2021/08/21 11:54:07;;;;;;;3.03;2.70;;;;;;;;;;5087730;28;20396;-82
2021/08/21 11:56:33;;;;;;;4.82;3.08;;;;;;;;;;5087459;28;20368;-87
2021/08/21 11:59:11;;;;;;;3.90;2.97;;;;;;;;;;5085475;28;20895;-83
2021/08/21 12:01:40;;;;;;;5.40;3.10;;;;;;;;;;5069192;28;20866;-81
2021/08/21 12:06:36;;;;;;;4.47;2.58;;;;;;;;;;5085963;28;20877;-81
2021/08/21 12:09:11;;;;;;;4.70;3.03;;;;;;;;;;5086752;28;20379;-81
2021/08/21 12:11:38;;;;;;;4.55;3.40;;;;;;;;;;5086910;28;20372;-84
2021/08/21 12:14:05;;;;;;;4.88;3.15;;;;;;;;;;5070100;28;20376;-81
2021/08/21 12:16:32;;;;;;;3.28;2.80;;;;;;;;;;5087646;28;20383;-84
2021/08/21 12:18:58;;;;;;;4.55;3.30;;;;;;;;;;5087010;28;20872;-81
2021/08/21 12:21:24;;;;;;;5.13;3.30;;;;;;;;;;5086734;28;20385;-82
2021/08/21 12:23:51;;;;;;;4.70;3.15;;;;;;;;;;5069173;28;20372;-83
2021/08/21 12:26:37;;;;;;;4.17;3.10;;;;;;;;;;5082649;28;20803;-81
2021/08/21 12:29:05;;;;;;;4.03;2.97;;;;;;;;;;5060050;28;20388;-81
2021/08/21 12:31:35;;;;;;;3.00;2.70;;;;;;;;;;5084586;28;20459;-83
2021/08/21 12:34:01;;;;;;;3.50;2.83;;;;;;;;;;5087090;28;20404;-82
2021/08/21 12:36:27;;;;;;;4.75;3.08;;;;;;;;;;5066570;28;20734;-82
2021/08/21 12:39:06;;;;;;;3.63;2.83;;;;;;;;;;5085391;28;20376;-86
2021/08/21 12:41:33;;;;;;;3.50;2.33;;;;;;;;;;5085320;28;20379;-83
2021/08/21 12:44:06;;;;;;;4.00;2.67;;;;;;;;;;5086175;28;20381;-82
2021/08/21 12:46:32;;;;;;;4.07;3.10;;;;;;;;;;5088723;28;20447;-86
2021/08/21 12:49:08;;;;;;;3.95;3.17;;;;;;;;;;5087525;28;20374;-85
2021/08/21 12:51:35;;;;;;;3.97;2.60;;;;;;;;;;5087526;28;20357;-84
2021/08/21 12:54:08;;;;;;;3.63;3.10;;;;;;;;;;5069962;28;20389;-85
2021/08/21 12:56:34;;;;;;;4.17;3.23;;;;;;;;;;5087749;28;20726;-84
2021/08/21 12:59:14;;;;;;;3.70;2.80;;;;;;;;;;5088684;28;20514;-86
2021/08/21 13:01:40;;;;;;;4.90;2.90;;;;;;;;;;5069073;28;20959;-84
2021/08/21 13:04:18;;;;;;;3.03;2.50;;;;;;;;;;5087186;28;20847;-82
2021/08/21 13:06:58;;;;;;;4.63;2.90;;;;;;;;;;5085335;28;20403;-83
2021/08/21 13:09:24;;;;;;;4.43;2.63;;;;;;;;;;5067349;28;20404;-85
2021/08/21 13:11:50;;;;;;;3.55;2.97;;;;;;;;;;5090322;28;20801;-83
2021/08/21 13:14:16;;;;;;;2.88;2.55;;;;;;;;;;5091680;28;20371;-85
2021/08/21 13:16:44;;;;;;;4.32;3.08;;;;;;;;;;5091343;28;20854;-82
2021/08/21 13:19:10;;;;;;;3.73;2.70;;;;;;;;;;5091073;28;20372;-87
2021/08/21 13:21:36;;;;;;;3.92;2.88;;;;;;;;;;5091008;28;20375;-81
2021/08/21 13:24:02;;;;;;;3.53;2.63;;;;;;;;;;5091273;28;20365;-87
2021/08/21 13:26:28;;;;;;;5.05;2.90;;;;;;;;;;5073683;28;20441;-85
2021/08/21 13:28:54;;;;;;;5.53;3.13;;;;;;;;;;5073108;28;20434;-81
2021/08/21 13:31:23;;;;;;;3.38;3.00;;;;;;;;;;5091441;28;20726;-81
2021/08/21 13:33:49;;;;;;;3.88;3.08;;;;;;;;;;5088702;28;20368;-84
2021/08/21 13:36:15;;;;;;;3.10;2.72;;;;;;;;;;5090563;28;20380;-88
2021/08/21 13:38:41;;;;;;;3.42;3.10;;;;;;;;;;5089875;28;20459;-81
2021/08/21 13:41:07;;;;;;;4.70;3.15;;;;;;;;;;5072610;28;20912;-83
2021/08/21 13:43:34;;;;;;;3.00;2.70;;;;;;;;;;5089499;28;20734;-85
2021/08/21 13:46:00;;;;;;;3.92;2.70;;;;;;;;;;5072567;28;20768;-82
2021/08/21 14:03:17;;;;;;;3.50;2.88;;;;;;;;;;5113640;27;20704;-84
2021/08/21 14:05:43;;;;;;;4.50;3.30;;;;;;;;;;5108641;28;20380;-80
2021/08/21 14:08:13;;;;;;;3.25;2.92;;;;;;;;;;5112126;27;20370;-82
2021/08/21 14:10:39;;;;;;;3.78;2.90;;;;;;;;;;5113970;27;20416;-84
2021/08/21 14:13:06;;;;;;;5.65;2.85;;;;;;;;;;5119256;27;20646;-83
2021/08/21 14:15:32;;;;;;;3.63;2.92;;;;;;;;;;5118062;28;20461;-82
2021/08/21 14:17:58;;;;;;;3.38;2.78;;;;;;;;;;5120216;28;20477;-84
2021/08/21 14:20:24;;;;;;;4.50;2.67;;;;;;;;;;5116750;27;20378;-81
2021/08/21 14:22:50;;;;;;;3.15;2.85;;;;;;;;;;5129948;27;20504;-86
2021/08/21 14:25:17;;;;;;;3.25;2.95;;;;;;;;;;5117223;27;20385;-84
2021/08/21 14:27:43;;;;;;;4.63;3.10;;;;;;;;;;5115772;27;20379;-81
2021/08/21 14:30:10;;;;;;;3.70;2.70;;;;;;;;;;5116639;28;20693;-83
2021/08/21 14:32:36;;;;;;;4.03;2.88;;;;;;;;;;5105998;28;20406;-83
2021/08/21 14:35:03;;;;;;;3.35;2.95;;;;;;;;;;5106577;28;20419;-84
2021/08/21 14:37:29;;;;;;;3.47;2.90;;;;;;;;;;5119327;27;20380;-80
2021/08/21 14:39:55;;;;;;;3.53;2.88;;;;;;;;;;5125351;27;20363;-82
2021/08/21 14:42:21;;;;;;;3.60;2.88;;;;;;;;;;5116333;28;21216;-84
2021/08/21 14:44:47;;;;;;;3.28;2.92;;;;;;;;;;5115437;28;20404;-83
2021/08/21 14:47:18;;;;;;;4.40;3.13;;;;;;;;;;5111363;27;20384;-84